createdAt,value
2022-08-31T00:01:34.698Z,19.70
2022-08-31T00:06:42.321Z,19.60
2022-08-31T00:11:45.980Z,19.60
2022-08-31T00:16:49.795Z,19.60
2022-08-31T00:21:54.935Z,19.50
2022-08-31T00:27:03.216Z,19.50
2022-08-31T00:32:07.292Z,19.50
2022-08-31T00:37:12.701Z,19.40
2022-08-31T00:42:16.740Z,19.40
2022-08-31T00:47:20.481Z,19.40
2022-08-31T00:52:28.837Z,19.30
2022-08-31T00:57:40.318Z,19.30
2022-08-31T01:02:45.596Z,19.30
2022-08-31T01:07:53.383Z,19.30
2022-08-31T01:12:59.792Z,19.20
2022-08-31T01:18:12.293Z,19.20
2022-08-31T01:23:21.452Z,19.20
2022-08-31T01:28:25.939Z,19.10
2022-08-31T01:33:31.115Z,19.10
2022-08-31T01:38:37.053Z,19.10
2022-08-31T01:43:40.801Z,19.00
2022-08-31T01:48:46.247Z,19.00
2022-08-31T01:53:53.801Z,18.90
2022-08-31T01:58:58.733Z,18.90
2022-08-31T02:04:23.840Z,18.90
2022-08-31T02:09:33.177Z,18.90
2022-08-31T02:14:36.859Z,18.80
2022-08-31T02:19:40.660Z,18.80
2022-08-31T02:24:45.632Z,18.80
2022-08-31T02:29:50.640Z,18.70
2022-08-31T02:34:54.938Z,18.70
2022-08-31T02:40:00.139Z,18.70
2022-08-31T02:45:04.304Z,18.70
2022-08-31T02:50:09.505Z,18.70
2022-08-31T02:55:15.218Z,18.60
2022-08-31T03:00:21.116Z,18.60
2022-08-31T03:05:25.530Z,18.60
2022-08-31T03:10:30.860Z,18.50
2022-08-31T03:15:34.594Z,18.50
2022-08-31T03:20:40.704Z,18.50
2022-08-31T03:25:45.762Z,18.40
2022-08-31T03:30:50.038Z,18.40
2022-08-31T03:35:53.944Z,18.40
2022-08-31T03:40:59.093Z,18.30
2022-08-31T03:46:04.691Z,18.30
2022-08-31T03:51:16.224Z,18.30
2022-08-31T03:56:21.838Z,18.20
2022-08-31T04:01:27.104Z,18.20
2022-08-31T04:06:51.091Z,18.20
2022-08-31T04:12:25.211Z,18.10
2022-08-31T04:17:52.213Z,18.10
2022-08-31T04:23:24.362Z,18.00
2022-08-31T04:28:31.134Z,18.00
2022-08-31T04:33:34.980Z,17.90
2022-08-31T04:38:40.641Z,17.90
2022-08-31T04:43:49.136Z,17.80
2022-08-31T04:48:53.408Z,17.80
2022-08-31T04:53:57.999Z,17.80
2022-08-31T04:59:05.487Z,17.70
2022-08-31T05:04:16.102Z,17.70
2022-08-31T05:09:22.640Z,17.70
2022-08-31T05:14:30.049Z,17.60
2022-08-31T05:19:41.359Z,17.60
2022-08-31T05:24:45.411Z,17.60
2022-08-31T05:29:51.267Z,17.50
2022-08-31T05:35:14.229Z,17.50
2022-08-31T05:40:20.574Z,17.40
2022-08-31T05:45:25.826Z,17.40
2022-08-31T05:50:29.694Z,17.40
2022-08-31T05:55:33.680Z,17.40
2022-08-31T06:00:39.400Z,17.40
2022-08-31T06:06:09.776Z,17.40
2022-08-31T06:11:19.302Z,17.30
2022-08-31T06:16:25.340Z,17.30
2022-08-31T06:21:32.090Z,17.30
2022-08-31T06:26:37.149Z,17.40
2022-08-31T06:31:47.850Z,17.40
2022-08-31T06:36:55.063Z,17.40
2022-08-31T06:42:19.193Z,17.40
2022-08-31T06:47:33.769Z,17.40
2022-08-31T06:52:39.043Z,17.40
2022-08-31T06:58:09.225Z,17.50
2022-08-31T07:03:33.310Z,17.50
2022-08-31T07:08:39.555Z,17.60
2022-08-31T07:13:44.802Z,17.60
2022-08-31T07:19:04.978Z,17.60
2022-08-31T07:24:27.820Z,17.60
2022-08-31T07:29:40.559Z,17.60
2022-08-31T07:34:59.765Z,17.60
2022-08-31T07:40:25.838Z,17.70
2022-08-31T07:45:33.456Z,17.80
2022-08-31T07:50:47.326Z,17.90
2022-08-31T07:55:56.841Z,17.90
2022-08-31T08:01:14.617Z,18.00
2022-08-31T08:06:22.210Z,18.10
2022-08-31T08:12:01.046Z,18.20
2022-08-31T08:17:22.736Z,18.30
2022-08-31T08:22:51.555Z,18.50
2022-08-31T08:28:35.476Z,18.50
2022-08-31T08:33:34.563Z,18.70
2022-08-31T08:38:43.885Z,18.80
2022-08-31T08:43:53.202Z,19.00
2022-08-31T08:49:01.317Z,19.10
2022-08-31T08:54:15.968Z,19.30
2022-08-31T08:59:20.939Z,19.50
2022-08-31T09:04:54.159Z,19.70
2022-08-31T09:10:25.426Z,19.90
2022-08-31T09:15:57.656Z,20.30
2022-08-31T09:21:07.454Z,20.60
2022-08-31T09:26:17.134Z,20.90
2022-08-31T09:31:40.246Z,21.40
2022-08-31T09:36:44.219Z,21.90
2022-08-31T09:41:50.836Z,22.40
2022-08-31T09:47:00.809Z,22.90
2022-08-31T09:52:19.846Z,23.20
2022-08-31T09:57:50.517Z,23.60
2022-08-31T10:02:59.538Z,23.90
2022-08-31T10:08:17.587Z,24.20
2022-08-31T10:13:39.505Z,24.20
2022-08-31T10:18:52.273Z,24.10
2022-08-31T10:24:07.627Z,24.10
2022-08-31T10:29:23.288Z,24.20
2022-08-31T10:34:51.253Z,24.60
2022-08-31T10:39:58.441Z,24.80
2022-08-31T10:45:15.158Z,25.10
2022-08-31T10:50:29.053Z,25.40
2022-08-31T10:55:37.483Z,25.60
2022-08-31T11:00:52.628Z,25.80
2022-08-31T11:06:02.144Z,25.90
2022-08-31T11:11:13.098Z,25.60
2022-08-31T11:16:32.832Z,25.40
2022-08-31T11:22:12.994Z,25.20
2022-08-31T11:27:24.600Z,25.10
2022-08-31T11:32:35.518Z,25.00
2022-08-31T11:37:52.371Z,24.90
2022-08-31T11:42:57.823Z,24.90
2022-08-31T11:48:03.016Z,24.80
2022-08-31T11:53:27.149Z,24.80
2022-08-31T11:58:34.656Z,24.80
2022-08-31T12:03:50.802Z,24.80
2022-08-31T12:09:10.087Z,24.80
2022-08-31T12:14:24.328Z,24.80
2022-08-31T12:20:02.464Z,24.90
2022-08-31T12:25:17.746Z,24.90
2022-08-31T12:30:25.090Z,25.00
2022-08-31T12:35:31.849Z,25.10
2022-08-31T12:40:37.382Z,25.20
2022-08-31T12:46:34.397Z,25.30
2022-08-31T12:51:46.376Z,25.30
2022-08-31T12:56:58.400Z,25.30
2022-08-31T13:02:02.866Z,25.30
2022-08-31T13:07:23.054Z,25.30
2022-08-31T13:12:27.918Z,25.30
2022-08-31T13:17:38.050Z,25.30
2022-08-31T13:22:49.128Z,25.40
2022-08-31T13:27:54.396Z,25.30
2022-08-31T13:33:11.833Z,25.30
2022-08-31T13:38:36.967Z,25.20
2022-08-31T13:44:02.640Z,25.10
2022-08-31T13:49:24.497Z,25.00
2022-08-31T13:54:42.878Z,24.90
2022-08-31T13:59:48.186Z,24.80
2022-08-31T14:05:01.417Z,24.80
2022-08-31T14:10:22.353Z,24.70
2022-08-31T14:15:40.176Z,24.70
2022-08-31T14:21:19.078Z,24.70
2022-08-31T14:26:21.627Z,24.70
2022-08-31T14:31:31.506Z,24.60
2022-08-31T14:36:53.509Z,24.60
2022-08-31T14:42:11.174Z,24.50
2022-08-31T14:47:23.169Z,24.50
2022-08-31T14:52:29.576Z,24.50
2022-08-31T14:57:41.929Z,24.40
2022-08-31T15:02:53.900Z,24.50
2022-08-31T15:08:00.130Z,24.40
2022-08-31T15:13:09.058Z,24.40
2022-08-31T15:18:14.580Z,24.40
2022-08-31T15:23:18.543Z,24.30
2022-08-31T15:28:23.933Z,24.30
2022-08-31T15:33:29.125Z,24.30
2022-08-31T15:38:32.853Z,24.20
2022-08-31T15:43:38.740Z,24.20
2022-08-31T15:48:46.169Z,24.20
2022-08-31T15:54:11.614Z,24.20
2022-08-31T15:59:17.881Z,24.10
2022-08-31T16:04:24.286Z,24.10
2022-08-31T16:09:27.857Z,24.10
2022-08-31T16:14:33.512Z,24.00
2022-08-31T16:19:37.712Z,24.00
2022-08-31T16:24:42.400Z,23.90
2022-08-31T16:29:50.755Z,23.90
2022-08-31T16:34:56.539Z,23.90
2022-08-31T16:40:00.398Z,23.80
2022-08-31T16:45:06.719Z,23.80
2022-08-31T16:50:11.034Z,23.80
2022-08-31T16:55:14.959Z,23.80
2022-08-31T17:00:20.654Z,23.70
2022-08-31T17:05:32.800Z,23.70
2022-08-31T17:10:36.544Z,23.70
2022-08-31T17:15:43.207Z,23.60
2022-08-31T17:20:48.031Z,23.60
2022-08-31T17:25:52.138Z,23.50
2022-08-31T17:31:00.299Z,23.50
2022-08-31T17:36:06.816Z,23.40
2022-08-31T17:41:12.209Z,23.40
2022-08-31T17:46:17.323Z,23.40
2022-08-31T17:51:27.314Z,23.40
2022-08-31T17:56:34.789Z,23.30
2022-08-31T18:01:39.902Z,23.30
2022-08-31T18:06:44.927Z,23.20
2022-08-31T18:11:49.706Z,23.20
2022-08-31T18:16:56.741Z,23.10
2022-08-31T18:22:00.895Z,23.10
2022-08-31T18:27:07.152Z,23.00
2022-08-31T18:32:12.638Z,23.00
2022-08-31T18:37:22.172Z,22.90
2022-08-31T18:42:43.488Z,22.90
2022-08-31T18:48:26.518Z,22.80
2022-08-31T18:53:34.575Z,22.70
2022-08-31T18:58:39.013Z,22.70
2022-08-31T19:03:45.550Z,22.60
2022-08-31T19:09:23.567Z,22.60
2022-08-31T19:15:00.879Z,22.50
2022-08-31T19:20:10.232Z,22.50
2022-08-31T19:25:18.265Z,22.40
2022-08-31T19:30:27.824Z,22.30
2022-08-31T19:35:33.320Z,22.30
2022-08-31T19:40:58.463Z,22.20
2022-08-31T19:46:13.701Z,22.20
2022-08-31T19:51:21.533Z,22.10
2022-08-31T19:56:31.044Z,22.10
2022-08-31T20:01:35.712Z,22.10
2022-08-31T20:06:45.305Z,22.10
2022-08-31T20:11:50.440Z,22.10
2022-08-31T20:16:57.774Z,22.00
2022-08-31T20:22:08.583Z,22.00
2022-08-31T20:27:39.077Z,22.00
2022-08-31T20:33:29.524Z,22.00
2022-08-31T20:38:41.286Z,21.90
2022-08-31T20:43:45.192Z,21.90
2022-08-31T20:49:06.783Z,21.90
2022-08-31T20:54:15.392Z,21.80
2022-08-31T20:59:39.735Z,21.80
2022-08-31T21:04:49.578Z,21.80
2022-08-31T21:10:01.519Z,21.70
2022-08-31T21:15:13.126Z,21.70
2022-08-31T21:20:22.406Z,21.60
2022-08-31T21:25:32.726Z,21.60
2022-08-31T21:30:38.809Z,21.60
2022-08-31T21:35:46.576Z,21.60
2022-08-31T21:40:59.657Z,21.50
2022-08-31T21:46:10.016Z,21.50
2022-08-31T21:51:19.337Z,21.50
2022-08-31T21:56:55.458Z,21.40
2022-08-31T22:02:07.187Z,21.40
2022-08-31T22:07:14.542Z,21.30
2022-08-31T22:12:36.237Z,21.20
2022-08-31T22:18:02.036Z,21.20
2022-08-31T22:23:09.117Z,21.10
2022-08-31T22:28:15.047Z,21.10
2022-08-31T22:33:22.461Z,21.00
2022-08-31T22:38:48.128Z,21.00
2022-08-31T22:43:57.600Z,20.80
2022-08-31T22:49:01.870Z,20.80
2022-08-31T22:54:36.587Z,20.70
2022-08-31T23:05:47.453Z,20.60
2022-08-31T23:10:53.730Z,20.50
2022-08-31T23:15:59.738Z,20.40
2022-08-31T23:21:16.396Z,20.40
2022-08-31T23:26:21.150Z,20.30
2022-08-31T23:31:27.985Z,20.20
2022-08-31T23:36:31.869Z,20.10
2022-08-31T23:41:37.780Z,20.10
2022-08-31T23:46:44.346Z,20.00
2022-08-31T23:51:49.194Z,19.90
2022-08-31T23:56:57.992Z,19.90
